sensor_id;sensor_type;location;lat;lon;timestamp;temperature;humidity
1225;DHT22;602;48.000;7.840;2023-04-25T00:01:34;11.60;99.90
1225;DHT22;602;48.000;7.840;2023-04-25T00:04:03;11.70;99.90
1225;DHT22;602;48.000;7.840;2023-04-25T00:06:31;11.70;99.90
1225;DHT22;602;48.000;7.840;2023-04-25T00:08:58;11.60;99.90
1225;DHT22;602;48.000;7.840;2023-04-25T00:11:25;11.60;99.90
1225;DHT22;602;48.000;7.840;2023-04-25T00:13:52;11.60;99.90
1225;DHT22;602;48.000;7.840;2023-04-25T00:16:19;11.60;99.90
1225;DHT22;602;48.000;7.840;2023-04-25T00:18:46;11.50;99.90
1225;DHT22;602;48.000;7.840;2023-04-25T00:21:18;11.50;99.90
1225;DHT22;602;48.000;7.840;2023-04-25T00:23:45;11.50;99.90
1225;DHT22;602;48.000;7.840;2023-04-25T00:26:12;11.50;99.90
1225;DHT22;602;48.000;7.840;2023-04-25T00:28:39;11.60;99.90
1225;DHT22;602;48.000;7.840;2023-04-25T00:31:06;11.60;99.90
1225;DHT22;602;48.000;7.840;2023-04-25T00:33:33;11.60;99.90
1225;DHT22;602;48.000;7.840;2023-04-25T00:36:00;11.70;99.90
1225;DHT22;602;48.000;7.840;2023-04-25T00:38:28;11.60;99.90
1225;DHT22;602;48.000;7.840;2023-04-25T00:40:55;11.60;99.90
1225;DHT22;602;48.000;7.840;2023-04-25T00:43:24;11.70;99.90
1225;DHT22;602;48.000;7.840;2023-04-25T00:45:52;11.60;99.90
1225;DHT22;602;48.000;7.840;2023-04-25T00:48:21;11.70;99.90
1225;DHT22;602;48.000;7.840;2023-04-25T00:50:52;11.60;99.90
1225;DHT22;602;48.000;7.840;2023-04-25T00:53:19;11.70;99.90
1225;DHT22;602;48.000;7.840;2023-04-25T00:55:48;11.60;99.90
1225;DHT22;602;48.000;7.840;2023-04-25T00:58:16;11.70;99.90
1225;DHT22;602;48.000;7.840;2023-04-25T01:00:44;11.70;99.90
1225;DHT22;602;48.000;7.840;2023-04-25T01:03:12;11.70;99.90
1225;DHT22;602;48.000;7.840;2023-04-25T01:05:39;11.60;99.90
1225;DHT22;602;48.000;7.840;2023-04-25T01:08:07;11.60;99.90
1225;DHT22;602;48.000;7.840;2023-04-25T01:10:35;11.60;99.90
1225;DHT22;602;48.000;7.840;2023-04-25T01:13:04;11.50;99.90
1225;DHT22;602;48.000;7.840;2023-04-25T01:15:31;11.40;99.90
1225;DHT22;602;48.000;7.840;2023-04-25T01:17:58;11.50;99.90
1225;DHT22;602;48.000;7.840;2023-04-25T01:20:26;11.40;99.90
1225;DHT22;602;48.000;7.840;2023-04-25T01:22:55;11.40;99.90
1225;DHT22;602;48.000;7.840;2023-04-25T01:25:22;11.40;99.90
1225;DHT22;602;48.000;7.840;2023-04-25T01:27:49;11.40;99.90
1225;DHT22;602;48.000;7.840;2023-04-25T01:30:17;11.40;99.90
1225;DHT22;602;48.000;7.840;2023-04-25T01:32:44;11.40;99.90
1225;DHT22;602;48.000;7.840;2023-04-25T01:35:11;11.40;99.90
1225;DHT22;602;48.000;7.840;2023-04-25T01:37:38;11.50;99.90
1225;DHT22;602;48.000;7.840;2023-04-25T01:40:08;11.40;99.90
1225;DHT22;602;48.000;7.840;2023-04-25T01:42:38;11.40;99.90
1225;DHT22;602;48.000;7.840;2023-04-25T01:45:07;11.30;99.90
1225;DHT22;602;48.000;7.840;2023-04-25T01:47:34;11.30;99.90
1225;DHT22;602;48.000;7.840;2023-04-25T01:50:01;11.40;99.90
1225;DHT22;602;48.000;7.840;2023-04-25T01:52:28;11.40;99.90
1225;DHT22;602;48.000;7.840;2023-04-25T01:54:57;11.30;99.90
1225;DHT22;602;48.000;7.840;2023-04-25T01:57:25;11.30;99.90
1225;DHT22;602;48.000;7.840;2023-04-25T01:59:54;11.30;99.90
1225;DHT22;602;48.000;7.840;2023-04-25T02:02:24;11.20;99.90
1225;DHT22;602;48.000;7.840;2023-04-25T02:04:51;11.30;99.90
1225;DHT22;602;48.000;7.840;2023-04-25T02:07:19;11.30;99.90
1225;DHT22;602;48.000;7.840;2023-04-25T02:09:46;11.30;99.90
1225;DHT22;602;48.000;7.840;2023-04-25T02:12:13;11.30;99.90
1225;DHT22;602;48.000;7.840;2023-04-25T02:14:41;11.30;99.90
1225;DHT22;602;48.000;7.840;2023-04-25T02:17:08;11.30;99.90
1225;DHT22;602;48.000;7.840;2023-04-25T02:19:35;11.30;99.90
1225;DHT22;602;48.000;7.840;2023-04-25T02:22:02;11.30;99.90
1225;DHT22;602;48.000;7.840;2023-04-25T02:24:29;11.30;99.90
1225;DHT22;602;48.000;7.840;2023-04-25T02:26:57;11.30;99.90
1225;DHT22;602;48.000;7.840;2023-04-25T02:29:24;11.40;99.90
1225;DHT22;602;48.000;7.840;2023-04-25T02:31:52;11.40;99.90
1225;DHT22;602;48.000;7.840;2023-04-25T02:34:19;11.40;99.90
1225;DHT22;602;48.000;7.840;2023-04-25T02:36:46;11.40;99.90
1225;DHT22;602;48.000;7.840;2023-04-25T02:39:12;11.40;99.90
1225;DHT22;602;48.000;7.840;2023-04-25T02:41:39;11.50;99.90
1225;DHT22;602;48.000;7.840;2023-04-25T02:44:06;11.50;99.90
1225;DHT22;602;48.000;7.840;2023-04-25T02:46:33;11.50;99.90
1225;DHT22;602;48.000;7.840;2023-04-25T02:49:01;11.50;99.90
1225;DHT22;602;48.000;7.840;2023-04-25T02:51:28;11.50;99.90
1225;DHT22;602;48.000;7.840;2023-04-25T02:53:55;11.50;99.90
1225;DHT22;602;48.000;7.840;2023-04-25T02:56:22;11.40;99.90
1225;DHT22;602;48.000;7.840;2023-04-25T02:58:51;11.30;99.90
1225;DHT22;602;48.000;7.840;2023-04-25T03:01:18;11.30;99.90
1225;DHT22;602;48.000;7.840;2023-04-25T03:03:45;11.20;99.90
1225;DHT22;602;48.000;7.840;2023-04-25T03:06:13;11.20;99.90
1225;DHT22;602;48.000;7.840;2023-04-25T03:08:40;11.20;99.90
1225;DHT22;602;48.000;7.840;2023-04-25T03:11:08;11.20;99.90
1225;DHT22;602;48.000;7.840;2023-04-25T03:13:35;11.20;99.90
1225;DHT22;602;48.000;7.840;2023-04-25T03:16:02;11.20;99.90
1225;DHT22;602;48.000;7.840;2023-04-25T03:18:29;11.20;99.90
1225;DHT22;602;48.000;7.840;2023-04-25T03:20:56;11.20;99.90
1225;DHT22;602;48.000;7.840;2023-04-25T03:23:24;11.20;99.90
1225;DHT22;602;48.000;7.840;2023-04-25T03:25:51;11.30;99.90
1225;DHT22;602;48.000;7.840;2023-04-25T03:28:18;11.30;99.90
1225;DHT22;602;48.000;7.840;2023-04-25T03:30:45;11.20;99.90
1225;DHT22;602;48.000;7.840;2023-04-25T03:33:12;11.20;99.90
1225;DHT22;602;48.000;7.840;2023-04-25T03:35:39;11.20;99.90
1225;DHT22;602;48.000;7.840;2023-04-25T03:38:05;11.20;99.90
1225;DHT22;602;48.000;7.840;2023-04-25T03:40:34;11.20;99.90
1225;DHT22;602;48.000;7.840;2023-04-25T03:43:01;11.30;99.90
1225;DHT22;602;48.000;7.840;2023-04-25T03:45:27;11.30;99.90
1225;DHT22;602;48.000;7.840;2023-04-25T03:47:54;11.30;99.90
1225;DHT22;602;48.000;7.840;2023-04-25T03:50:21;11.30;99.90
1225;DHT22;602;48.000;7.840;2023-04-25T03:52:48;11.30;99.90
1225;DHT22;602;48.000;7.840;2023-04-25T03:55:15;11.40;99.90
1225;DHT22;602;48.000;7.840;2023-04-25T03:57:43;11.30;99.90
1225;DHT22;602;48.000;7.840;2023-04-25T04:00:11;11.30;99.90
1225;DHT22;602;48.000;7.840;2023-04-25T04:02:38;11.30;99.90
1225;DHT22;602;48.000;7.840;2023-04-25T04:05:05;11.30;99.90
1225;DHT22;602;48.000;7.840;2023-04-25T04:07:32;11.30;99.90
1225;DHT22;602;48.000;7.840;2023-04-25T04:10:02;11.30;99.90
1225;DHT22;602;48.000;7.840;2023-04-25T04:12:30;11.30;99.90
1225;DHT22;602;48.000;7.840;2023-04-25T04:14:59;11.30;99.90
1225;DHT22;602;48.000;7.840;2023-04-25T04:17:25;11.30;99.90
1225;DHT22;602;48.000;7.840;2023-04-25T04:19:52;11.20;99.90
1225;DHT22;602;48.000;7.840;2023-04-25T04:22:20;11.00;99.90
1225;DHT22;602;48.000;7.840;2023-04-25T04:24:47;11.10;99.90
1225;DHT22;602;48.000;7.840;2023-04-25T04:27:15;11.10;99.90
1225;DHT22;602;48.000;7.840;2023-04-25T04:29:43;11.10;99.90
1225;DHT22;602;48.000;7.840;2023-04-25T04:32:12;11.00;99.90
1225;DHT22;602;48.000;7.840;2023-04-25T04:34:39;11.00;99.90
1225;DHT22;602;48.000;7.840;2023-04-25T04:37:07;11.00;99.90
1225;DHT22;602;48.000;7.840;2023-04-25T04:39:35;11.10;99.90
1225;DHT22;602;48.000;7.840;2023-04-25T04:42:02;11.00;99.90
1225;DHT22;602;48.000;7.840;2023-04-25T04:44:30;10.90;99.90
1225;DHT22;602;48.000;7.840;2023-04-25T04:46:58;11.00;99.90
1225;DHT22;602;48.000;7.840;2023-04-25T04:49:26;10.90;99.90
1225;DHT22;602;48.000;7.840;2023-04-25T04:51:53;10.80;99.90
1225;DHT22;602;48.000;7.840;2023-04-25T04:54:21;10.90;99.90
1225;DHT22;602;48.000;7.840;2023-04-25T04:56:47;10.80;99.90
1225;DHT22;602;48.000;7.840;2023-04-25T04:59:15;10.70;99.90
1225;DHT22;602;48.000;7.840;2023-04-25T05:01:42;10.70;99.90
1225;DHT22;602;48.000;7.840;2023-04-25T05:04:09;10.80;99.90
1225;DHT22;602;48.000;7.840;2023-04-25T05:06:37;10.90;99.90
1225;DHT22;602;48.000;7.840;2023-04-25T05:09:04;10.90;99.90
1225;DHT22;602;48.000;7.840;2023-04-25T05:11:31;10.90;99.90
1225;DHT22;602;48.000;7.840;2023-04-25T05:13:58;10.90;99.90
1225;DHT22;602;48.000;7.840;2023-04-25T05:16:25;11.00;99.90
1225;DHT22;602;48.000;7.840;2023-04-25T05:18:51;11.00;99.90
1225;DHT22;602;48.000;7.840;2023-04-25T05:21:18;11.00;99.90
1225;DHT22;602;48.000;7.840;2023-04-25T05:23:46;11.00;99.90
1225;DHT22;602;48.000;7.840;2023-04-25T05:26:13;10.80;99.90
1225;DHT22;602;48.000;7.840;2023-04-25T05:28:40;10.60;99.90
1225;DHT22;602;48.000;7.840;2023-04-25T05:31:09;10.40;99.90
1225;DHT22;602;48.000;7.840;2023-04-25T05:33:36;10.40;99.90
1225;DHT22;602;48.000;7.840;2023-04-25T05:36:04;10.20;99.90
1225;DHT22;602;48.000;7.840;2023-04-25T05:38:31;10.10;99.90
1225;DHT22;602;48.000;7.840;2023-04-25T05:40:59;10.00;99.90
1225;DHT22;602;48.000;7.840;2023-04-25T05:43:26;10.00;99.90
1225;DHT22;602;48.000;7.840;2023-04-25T05:45:53;9.90;99.90
1225;DHT22;602;48.000;7.840;2023-04-25T05:48:20;9.80;99.90
1225;DHT22;602;48.000;7.840;2023-04-25T05:50:46;9.60;99.90
1225;DHT22;602;48.000;7.840;2023-04-25T05:53:13;9.60;99.90
1225;DHT22;602;48.000;7.840;2023-04-25T05:55:40;9.50;99.90
1225;DHT22;602;48.000;7.840;2023-04-25T05:58:09;9.30;99.90
1225;DHT22;602;48.000;7.840;2023-04-25T06:00:35;9.30;99.90
1225;DHT22;602;48.000;7.840;2023-04-25T06:03:03;9.10;99.90
1225;DHT22;602;48.000;7.840;2023-04-25T06:05:32;9.00;99.90
1225;DHT22;602;48.000;7.840;2023-04-25T06:07:59;8.90;99.90
1225;DHT22;602;48.000;7.840;2023-04-25T06:10:26;8.90;99.90
1225;DHT22;602;48.000;7.840;2023-04-25T06:12:53;8.80;99.90
1225;DHT22;602;48.000;7.840;2023-04-25T06:15:21;8.90;99.90
1225;DHT22;602;48.000;7.840;2023-04-25T06:17:48;9.00;99.90
1225;DHT22;602;48.000;7.840;2023-04-25T06:20:15;9.00;99.90
1225;DHT22;602;48.000;7.840;2023-04-25T06:22:42;9.00;99.90
1225;DHT22;602;48.000;7.840;2023-04-25T06:25:09;8.90;99.90
1225;DHT22;602;48.000;7.840;2023-04-25T06:27:36;8.90;99.90
1225;DHT22;602;48.000;7.840;2023-04-25T06:30:03;8.80;99.90
1225;DHT22;602;48.000;7.840;2023-04-25T06:32:32;8.90;99.90
1225;DHT22;602;48.000;7.840;2023-04-25T06:34:59;8.90;99.90
1225;DHT22;602;48.000;7.840;2023-04-25T06:37:28;8.80;99.90
1225;DHT22;602;48.000;7.840;2023-04-25T06:39:55;8.80;99.90
1225;DHT22;602;48.000;7.840;2023-04-25T06:42:22;8.80;99.90
1225;DHT22;602;48.000;7.840;2023-04-25T06:44:51;8.90;99.90
1225;DHT22;602;48.000;7.840;2023-04-25T06:47:18;8.90;99.90
1225;DHT22;602;48.000;7.840;2023-04-25T06:49:46;8.90;99.90
1225;DHT22;602;48.000;7.840;2023-04-25T06:52:13;8.80;99.90
1225;DHT22;602;48.000;7.840;2023-04-25T06:54:40;8.80;99.90
1225;DHT22;602;48.000;7.840;2023-04-25T06:57:07;8.70;99.90
1225;DHT22;602;48.000;7.840;2023-04-25T06:59:34;8.70;99.90
1225;DHT22;602;48.000;7.840;2023-04-25T07:02:01;8.70;99.90
1225;DHT22;602;48.000;7.840;2023-04-25T07:04:29;8.80;99.90
1225;DHT22;602;48.000;7.840;2023-04-25T07:06:57;8.80;99.90
1225;DHT22;602;48.000;7.840;2023-04-25T07:09:24;8.80;99.90
1225;DHT22;602;48.000;7.840;2023-04-25T07:11:51;8.70;99.90
1225;DHT22;602;48.000;7.840;2023-04-25T07:14:17;8.70;99.90
1225;DHT22;602;48.000;7.840;2023-04-25T07:16:44;8.80;99.90
1225;DHT22;602;48.000;7.840;2023-04-25T07:19:11;8.60;99.90
1225;DHT22;602;48.000;7.840;2023-04-25T07:21:38;8.60;99.90
1225;DHT22;602;48.000;7.840;2023-04-25T07:24:07;8.70;99.90
1225;DHT22;602;48.000;7.840;2023-04-25T07:26:33;8.70;99.90
1225;DHT22;602;48.000;7.840;2023-04-25T07:29:00;8.70;99.90
1225;DHT22;602;48.000;7.840;2023-04-25T07:31:27;8.70;99.90
1225;DHT22;602;48.000;7.840;2023-04-25T07:33:54;8.70;99.90
1225;DHT22;602;48.000;7.840;2023-04-25T07:36:21;8.80;99.90
1225;DHT22;602;48.000;7.840;2023-04-25T07:38:48;8.80;99.90
1225;DHT22;602;48.000;7.840;2023-04-25T07:41:16;8.70;99.90
1225;DHT22;602;48.000;7.840;2023-04-25T07:43:43;8.70;99.90
1225;DHT22;602;48.000;7.840;2023-04-25T07:46:10;8.70;99.90
1225;DHT22;602;48.000;7.840;2023-04-25T07:48:37;8.70;99.90
1225;DHT22;602;48.000;7.840;2023-04-25T07:51:04;8.80;99.90
1225;DHT22;602;48.000;7.840;2023-04-25T07:53:31;8.80;99.90
1225;DHT22;602;48.000;7.840;2023-04-25T07:55:59;8.90;99.90
1225;DHT22;602;48.000;7.840;2023-04-25T07:58:27;8.90;99.90
1225;DHT22;602;48.000;7.840;2023-04-25T08:00:54;8.80;99.90
1225;DHT22;602;48.000;7.840;2023-04-25T08:03:21;8.90;99.90
1225;DHT22;602;48.000;7.840;2023-04-25T08:05:48;8.90;99.90
1225;DHT22;602;48.000;7.840;2023-04-25T08:08:15;8.90;99.90
1225;DHT22;602;48.000;7.840;2023-04-25T08:10:42;8.90;99.90
1225;DHT22;602;48.000;7.840;2023-04-25T08:13:08;9.00;99.90
1225;DHT22;602;48.000;7.840;2023-04-25T08:15:37;9.10;99.90
1225;DHT22;602;48.000;7.840;2023-04-25T08:18:03;9.10;99.90
1225;DHT22;602;48.000;7.840;2023-04-25T08:20:30;9.10;99.90
1225;DHT22;602;48.000;7.840;2023-04-25T08:22:57;9.20;99.90
1225;DHT22;602;48.000;7.840;2023-04-25T08:25:24;9.20;99.90
1225;DHT22;602;48.000;7.840;2023-04-25T08:27:51;9.30;99.90
1225;DHT22;602;48.000;7.840;2023-04-25T08:30:18;9.30;99.90
1225;DHT22;602;48.000;7.840;2023-04-25T08:32:47;9.30;99.90
1225;DHT22;602;48.000;7.840;2023-04-25T08:35:14;9.30;99.90
1225;DHT22;602;48.000;7.840;2023-04-25T08:37:42;9.30;99.90
1225;DHT22;602;48.000;7.840;2023-04-25T08:40:12;9.40;99.90
1225;DHT22;602;48.000;7.840;2023-04-25T08:42:41;9.40;99.90
1225;DHT22;602;48.000;7.840;2023-04-25T08:45:09;9.40;99.90
1225;DHT22;602;48.000;7.840;2023-04-25T08:47:38;9.50;99.90
1225;DHT22;602;48.000;7.840;2023-04-25T08:50:06;9.50;99.90
1225;DHT22;602;48.000;7.840;2023-04-25T08:52:36;9.50;99.90
1225;DHT22;602;48.000;7.840;2023-04-25T08:55:05;9.50;99.90
1225;DHT22;602;48.000;7.840;2023-04-25T08:57:34;9.50;99.90
1225;DHT22;602;48.000;7.840;2023-04-25T09:00:02;9.50;99.90
1225;DHT22;602;48.000;7.840;2023-04-25T09:02:31;9.50;99.90
1225;DHT22;602;48.000;7.840;2023-04-25T09:04:58;9.50;99.90
1225;DHT22;602;48.000;7.840;2023-04-25T09:07:27;9.60;99.90
1225;DHT22;602;48.000;7.840;2023-04-25T09:09:54;9.60;99.90
1225;DHT22;602;48.000;7.840;2023-04-25T09:12:21;9.60;99.90
1225;DHT22;602;48.000;7.840;2023-04-25T09:15:04;9.60;99.90
1225;DHT22;602;48.000;7.840;2023-04-25T09:17:31;9.60;99.90
1225;DHT22;602;48.000;7.840;2023-04-25T09:20:06;9.70;99.90
1225;DHT22;602;48.000;7.840;2023-04-25T09:22:35;9.70;99.90
1225;DHT22;602;48.000;7.840;2023-04-25T09:25:04;9.70;99.90
1225;DHT22;602;48.000;7.840;2023-04-25T09:27:34;9.70;99.90
1225;DHT22;602;48.000;7.840;2023-04-25T09:30:01;9.80;99.90
1225;DHT22;602;48.000;7.840;2023-04-25T09:32:28;9.90;99.90
1225;DHT22;602;48.000;7.840;2023-04-25T09:34:56;9.90;99.90
1225;DHT22;602;48.000;7.840;2023-04-25T09:37:25;9.90;99.90
1225;DHT22;602;48.000;7.840;2023-04-25T09:39:55;10.00;99.90
1225;DHT22;602;48.000;7.840;2023-04-25T09:42:23;10.10;99.90
1225;DHT22;602;48.000;7.840;2023-04-25T09:44:52;10.10;99.90
1225;DHT22;602;48.000;7.840;2023-04-25T09:47:19;10.20;99.90
1225;DHT22;602;48.000;7.840;2023-04-25T09:49:48;10.40;99.90
1225;DHT22;602;48.000;7.840;2023-04-25T09:52:18;10.60;99.90
1225;DHT22;602;48.000;7.840;2023-04-25T09:54:45;10.80;99.90
1225;DHT22;602;48.000;7.840;2023-04-25T09:57:15;11.10;99.90
1225;DHT22;602;48.000;7.840;2023-04-25T09:59:44;11.50;99.90
1225;DHT22;602;48.000;7.840;2023-04-25T10:02:12;11.70;99.90
1225;DHT22;602;48.000;7.840;2023-04-25T10:04:41;11.80;99.90
1225;DHT22;602;48.000;7.840;2023-04-25T10:07:08;11.80;99.90
1225;DHT22;602;48.000;7.840;2023-04-25T10:09:37;11.90;99.90
1225;DHT22;602;48.000;7.840;2023-04-25T10:12:05;11.90;99.90
1225;DHT22;602;48.000;7.840;2023-04-25T10:14:35;12.00;99.90
1225;DHT22;602;48.000;7.840;2023-04-25T10:17:02;12.10;99.90
1225;DHT22;602;48.000;7.840;2023-04-25T10:19:30;12.30;99.90
1225;DHT22;602;48.000;7.840;2023-04-25T10:22:04;12.50;99.90
1225;DHT22;602;48.000;7.840;2023-04-25T10:24:32;12.80;99.90
1225;DHT22;602;48.000;7.840;2023-04-25T10:27:00;13.00;99.90
1225;DHT22;602;48.000;7.840;2023-04-25T10:29:27;13.20;99.90
1225;DHT22;602;48.000;7.840;2023-04-25T10:31:57;13.60;99.90
1225;DHT22;602;48.000;7.840;2023-04-25T10:34:25;14.00;99.90
1225;DHT22;602;48.000;7.840;2023-04-25T10:37:04;14.10;99.90
1225;DHT22;602;48.000;7.840;2023-04-25T10:39:33;14.20;99.90
1225;DHT22;602;48.000;7.840;2023-04-25T10:42:02;14.20;99.90
1225;DHT22;602;48.000;7.840;2023-04-25T10:44:32;14.10;99.90
1225;DHT22;602;48.000;7.840;2023-04-25T10:47:01;14.00;99.90
1225;DHT22;602;48.000;7.840;2023-04-25T10:49:30;13.80;99.90
1225;DHT22;602;48.000;7.840;2023-04-25T10:52:25;13.80;99.90
1225;DHT22;602;48.000;7.840;2023-04-25T10:54:54;13.70;99.90
1225;DHT22;602;48.000;7.840;2023-04-25T10:57:29;13.60;99.90
1225;DHT22;602;48.000;7.840;2023-04-25T10:59:59;13.90;99.90
1225;DHT22;602;48.000;7.840;2023-04-25T11:02:28;14.10;99.90
1225;DHT22;602;48.000;7.840;2023-04-25T11:04:55;14.20;99.90
1225;DHT22;602;48.000;7.840;2023-04-25T11:07:29;14.20;99.90
1225;DHT22;602;48.000;7.840;2023-04-25T11:10:02;14.20;99.90
1225;DHT22;602;48.000;7.840;2023-04-25T11:12:30;14.30;99.90
1225;DHT22;602;48.000;7.840;2023-04-25T11:15:02;14.20;99.90
1225;DHT22;602;48.000;7.840;2023-04-25T11:17:31;14.50;99.90
1225;DHT22;602;48.000;7.840;2023-04-25T11:19:58;15.00;99.90
1225;DHT22;602;48.000;7.840;2023-04-25T11:22:27;15.00;99.90
1225;DHT22;602;48.000;7.840;2023-04-25T11:24:55;15.40;99.90
1225;DHT22;602;48.000;7.840;2023-04-25T11:27:22;15.70;99.90
1225;DHT22;602;48.000;7.840;2023-04-25T11:29:50;16.10;99.90
1225;DHT22;602;48.000;7.840;2023-04-25T11:32:17;16.20;99.90
1225;DHT22;602;48.000;7.840;2023-04-25T11:34:46;16.00;99.90
1225;DHT22;602;48.000;7.840;2023-04-25T11:37:14;16.20;99.90
1225;DHT22;602;48.000;7.840;2023-04-25T11:39:44;16.20;99.90
1225;DHT22;602;48.000;7.840;2023-04-25T11:42:12;16.10;99.90
1225;DHT22;602;48.000;7.840;2023-04-25T11:44:39;16.10;99.90
1225;DHT22;602;48.000;7.840;2023-04-25T11:47:07;16.10;99.90
1225;DHT22;602;48.000;7.840;2023-04-25T11:49:35;16.00;99.90
1225;DHT22;602;48.000;7.840;2023-04-25T11:52:06;16.10;99.90
1225;DHT22;602;48.000;7.840;2023-04-25T11:54:35;16.00;99.90
1225;DHT22;602;48.000;7.840;2023-04-25T11:57:03;16.00;99.90
1225;DHT22;602;48.000;7.840;2023-04-25T11:59:30;16.00;99.90
1225;DHT22;602;48.000;7.840;2023-04-25T12:01:57;16.00;99.90
1225;DHT22;602;48.000;7.840;2023-04-25T12:04:30;15.80;99.90
1225;DHT22;602;48.000;7.840;2023-04-25T12:06:58;15.70;99.90
1225;DHT22;602;48.000;7.840;2023-04-25T12:09:32;15.60;99.90
1225;DHT22;602;48.000;7.840;2023-04-25T12:12:00;15.70;99.90
1225;DHT22;602;48.000;7.840;2023-04-25T12:14:30;15.90;99.90
1225;DHT22;602;48.000;7.840;2023-04-25T12:16:59;15.80;99.90
1225;DHT22;602;48.000;7.840;2023-04-25T12:19:31;15.80;99.90
1225;DHT22;602;48.000;7.840;2023-04-25T12:22:00;15.60;99.90
1225;DHT22;602;48.000;7.840;2023-04-25T12:24:28;15.70;99.90
1225;DHT22;602;48.000;7.840;2023-04-25T12:27:01;15.90;99.90
1225;DHT22;602;48.000;7.840;2023-04-25T12:29:30;16.20;99.90
1225;DHT22;602;48.000;7.840;2023-04-25T12:31:57;16.40;99.90
1225;DHT22;602;48.000;7.840;2023-04-25T12:34:25;16.70;99.90
1225;DHT22;602;48.000;7.840;2023-04-25T12:36:52;17.00;99.90
1225;DHT22;602;48.000;7.840;2023-04-25T12:39:20;17.00;99.90
1225;DHT22;602;48.000;7.840;2023-04-25T12:41:48;17.10;99.90
1225;DHT22;602;48.000;7.840;2023-04-25T12:44:17;17.30;99.90
1225;DHT22;602;48.000;7.840;2023-04-25T12:46:43;17.20;99.90
1225;DHT22;602;48.000;7.840;2023-04-25T12:49:11;17.10;99.90
1225;DHT22;602;48.000;7.840;2023-04-25T12:51:38;17.20;99.90
1225;DHT22;602;48.000;7.840;2023-04-25T12:54:07;17.20;99.90
1225;DHT22;602;48.000;7.840;2023-04-25T12:56:34;17.20;99.90
1225;DHT22;602;48.000;7.840;2023-04-25T12:59:02;16.90;99.90
1225;DHT22;602;48.000;7.840;2023-04-25T13:01:30;16.90;99.90
1225;DHT22;602;48.000;7.840;2023-04-25T13:03:58;16.90;99.90
1225;DHT22;602;48.000;7.840;2023-04-25T13:06:25;16.70;99.90
1225;DHT22;602;48.000;7.840;2023-04-25T13:08:52;16.70;99.90
1225;DHT22;602;48.000;7.840;2023-04-25T13:11:19;16.70;99.90
1225;DHT22;602;48.000;7.840;2023-04-25T13:13:46;16.80;99.90
1225;DHT22;602;48.000;7.840;2023-04-25T13:16:13;16.60;99.90
1225;DHT22;602;48.000;7.840;2023-04-25T13:18:42;16.70;99.90
1225;DHT22;602;48.000;7.840;2023-04-25T13:21:09;16.80;99.90
1225;DHT22;602;48.000;7.840;2023-04-25T13:23:37;17.00;99.90
1225;DHT22;602;48.000;7.840;2023-04-25T13:26:04;17.00;99.90
1225;DHT22;602;48.000;7.840;2023-04-25T13:28:31;17.10;99.90
1225;DHT22;602;48.000;7.840;2023-04-25T13:30:58;16.90;99.90
1225;DHT22;602;48.000;7.840;2023-04-25T13:33:25;16.70;99.90
1225;DHT22;602;48.000;7.840;2023-04-25T13:35:53;16.40;99.90
1225;DHT22;602;48.000;7.840;2023-04-25T13:38:22;15.80;99.90
1225;DHT22;602;48.000;7.840;2023-04-25T13:40:49;15.60;99.90
1225;DHT22;602;48.000;7.840;2023-04-25T13:43:18;15.50;99.90
1225;DHT22;602;48.000;7.840;2023-04-25T13:45:45;15.40;99.90
1225;DHT22;602;48.000;7.840;2023-04-25T13:48:12;15.20;99.90
1225;DHT22;602;48.000;7.840;2023-04-25T13:50:39;14.70;99.90
1225;DHT22;602;48.000;7.840;2023-04-25T13:53:07;14.70;99.90
1225;DHT22;602;48.000;7.840;2023-04-25T13:55:34;14.60;99.90
1225;DHT22;602;48.000;7.840;2023-04-25T13:58:02;14.40;99.90
1225;DHT22;602;48.000;7.840;2023-04-25T14:00:34;14.30;99.90
1225;DHT22;602;48.000;7.840;2023-04-25T14:03:01;14.40;99.90
1225;DHT22;602;48.000;7.840;2023-04-25T14:05:30;14.20;99.90
1225;DHT22;602;48.000;7.840;2023-04-25T14:07:57;14.30;99.90
1225;DHT22;602;48.000;7.840;2023-04-25T14:10:26;14.30;99.90
1225;DHT22;602;48.000;7.840;2023-04-25T14:12:53;14.30;99.90
1225;DHT22;602;48.000;7.840;2023-04-25T14:15:20;14.40;99.90
1225;DHT22;602;48.000;7.840;2023-04-25T14:17:47;14.50;99.90
1225;DHT22;602;48.000;7.840;2023-04-25T14:20:14;14.60;99.90
1225;DHT22;602;48.000;7.840;2023-04-25T14:22:45;14.80;99.90
1225;DHT22;602;48.000;7.840;2023-04-25T14:25:13;14.90;99.90
1225;DHT22;602;48.000;7.840;2023-04-25T14:27:41;15.00;99.90
1225;DHT22;602;48.000;7.840;2023-04-25T14:30:10;14.80;99.90
1225;DHT22;602;48.000;7.840;2023-04-25T14:32:37;14.80;99.90
1225;DHT22;602;48.000;7.840;2023-04-25T14:35:05;14.80;99.90
1225;DHT22;602;48.000;7.840;2023-04-25T14:37:32;14.90;99.90
1225;DHT22;602;48.000;7.840;2023-04-25T14:40:00;15.00;99.90
1225;DHT22;602;48.000;7.840;2023-04-25T14:42:26;15.00;99.90
1225;DHT22;602;48.000;7.840;2023-04-25T14:44:55;15.00;99.90
1225;DHT22;602;48.000;7.840;2023-04-25T14:47:24;14.90;99.90
1225;DHT22;602;48.000;7.840;2023-04-25T14:49:51;14.90;99.90
1225;DHT22;602;48.000;7.840;2023-04-25T14:52:19;15.00;99.90
1225;DHT22;602;48.000;7.840;2023-04-25T14:54:46;15.00;99.90
1225;DHT22;602;48.000;7.840;2023-04-25T14:57:13;15.10;99.90
1225;DHT22;602;48.000;7.840;2023-04-25T14:59:40;14.90;99.90
1225;DHT22;602;48.000;7.840;2023-04-25T15:02:09;14.90;99.90
1225;DHT22;602;48.000;7.840;2023-04-25T15:04:36;14.70;99.90
1225;DHT22;602;48.000;7.840;2023-04-25T15:07:03;14.60;99.90
1225;DHT22;602;48.000;7.840;2023-04-25T15:09:30;14.40;99.90
1225;DHT22;602;48.000;7.840;2023-04-25T15:11:57;14.20;99.90
1225;DHT22;602;48.000;7.840;2023-04-25T15:14:24;14.10;99.90
1225;DHT22;602;48.000;7.840;2023-04-25T15:16:51;13.80;99.90
1225;DHT22;602;48.000;7.840;2023-04-25T15:19:20;13.60;99.90
1225;DHT22;602;48.000;7.840;2023-04-25T15:21:47;13.50;99.90
1225;DHT22;602;48.000;7.840;2023-04-25T15:24:14;13.50;99.90
1225;DHT22;602;48.000;7.840;2023-04-25T15:26:42;13.60;99.90
1225;DHT22;602;48.000;7.840;2023-04-25T15:29:09;13.50;99.90
1225;DHT22;602;48.000;7.840;2023-04-25T15:31:37;13.40;99.90
1225;DHT22;602;48.000;7.840;2023-04-25T15:34:04;13.20;99.90
1225;DHT22;602;48.000;7.840;2023-04-25T15:36:34;13.10;99.90
1225;DHT22;602;48.000;7.840;2023-04-25T15:39:01;13.10;99.90
1225;DHT22;602;48.000;7.840;2023-04-25T15:41:28;13.00;99.90
1225;DHT22;602;48.000;7.840;2023-04-25T15:43:55;13.00;99.90
1225;DHT22;602;48.000;7.840;2023-04-25T15:46:22;13.10;99.90
1225;DHT22;602;48.000;7.840;2023-04-25T15:48:49;13.00;99.90
1225;DHT22;602;48.000;7.840;2023-04-25T15:51:18;13.00;99.90
1225;DHT22;602;48.000;7.840;2023-04-25T15:53:47;13.00;99.90
1225;DHT22;602;48.000;7.840;2023-04-25T15:56:14;13.10;99.90
1225;DHT22;602;48.000;7.840;2023-04-25T15:58:44;13.10;99.90
1225;DHT22;602;48.000;7.840;2023-04-25T16:01:14;13.10;99.90
1225;DHT22;602;48.000;7.840;2023-04-25T16:03:41;13.10;99.90
1225;DHT22;602;48.000;7.840;2023-04-25T16:06:08;12.80;99.90
1225;DHT22;602;48.000;7.840;2023-04-25T16:08:34;12.90;99.90
1225;DHT22;602;48.000;7.840;2023-04-25T16:11:03;12.80;99.90
1225;DHT22;602;48.000;7.840;2023-04-25T16:13:30;12.70;99.90
1225;DHT22;602;48.000;7.840;2023-04-25T16:15:58;12.60;99.90
1225;DHT22;602;48.000;7.840;2023-04-25T16:18:25;12.50;99.90
1225;DHT22;602;48.000;7.840;2023-04-25T16:20:55;12.50;99.90
1225;DHT22;602;48.000;7.840;2023-04-25T16:23:23;12.50;99.90
1225;DHT22;602;48.000;7.840;2023-04-25T16:25:58;12.50;99.90